createdAt,value
2022-10-18T00:00:32.751Z,1009.0392910360001
2022-10-18T00:01:32.777Z,1008.937699672
2022-10-18T00:02:32.738Z,1009.208609976
2022-10-18T00:03:32.848Z,1008.937699672
2022-10-18T00:04:32.743Z,1008.937699672
2022-10-18T00:05:32.740Z,1008.836108308
2022-10-18T00:06:32.749Z,1009.0392910360001
2022-10-18T00:07:32.943Z,1008.937699672
2022-10-18T00:08:32.713Z,1008.836108308
2022-10-18T00:09:32.724Z,1008.836108308
2022-10-18T00:10:32.740Z,1009.0392910360001
2022-10-18T00:11:32.749Z,1008.937699672
2022-10-18T00:12:32.773Z,1009.1070186119999
2022-10-18T00:13:32.733Z,1008.836108308
2022-10-18T00:14:32.734Z,1008.734516944
2022-10-18T00:15:32.737Z,1009.0392910360001
2022-10-18T00:16:32.733Z,1008.734516944
2022-10-18T00:17:33.042Z,1008.734516944
2022-10-18T00:18:32.745Z,1008.734516944
2022-10-18T00:19:32.739Z,1008.734516944
2022-10-18T00:20:32.694Z,1008.531334216
2022-10-18T00:21:32.764Z,1008.63292558
2022-10-18T00:22:33.025Z,1008.531334216
2022-10-18T00:23:32.744Z,1008.734516944
2022-10-18T00:24:32.681Z,1008.531334216
2022-10-18T00:25:32.734Z,1008.531334216
2022-10-18T00:26:32.737Z,1008.429742852
2022-10-18T00:27:32.761Z,1008.328151488
2022-10-18T00:28:32.723Z,1008.429742852
2022-10-18T00:29:32.732Z,1008.429742852
2022-10-18T00:30:32.739Z,1008.429742852
2022-10-18T00:31:32.728Z,1008.63292558
2022-10-18T00:32:33.051Z,1008.328151488
2022-10-18T00:33:32.749Z,1008.429742852
2022-10-18T00:34:32.737Z,1008.63292558
2022-10-18T00:35:32.754Z,1008.63292558
2022-10-18T00:36:32.704Z,1008.734516944
2022-10-18T00:37:32.735Z,1008.63292558
2022-10-18T00:38:32.743Z,1008.836108308
2022-10-18T00:39:32.747Z,1008.734516944
2022-10-18T00:40:32.720Z,1008.836108308
2022-10-18T00:41:32.717Z,1008.836108308
2022-10-18T00:42:33.092Z,1008.836108308
2022-10-18T00:43:32.728Z,1008.429742852
2022-10-18T00:44:32.718Z,1008.836108308
2022-10-18T00:45:32.756Z,1008.734516944
2022-10-18T00:46:32.732Z,1008.734516944
2022-10-18T00:47:32.734Z,1008.937699672
2022-10-18T00:48:32.690Z,1008.836108308
2022-10-18T00:49:32.723Z,1008.836108308
2022-10-18T00:50:32.720Z,1008.836108308
2022-10-18T00:51:32.751Z,1008.836108308
2022-10-18T00:52:33.016Z,1008.836108308
2022-10-18T00:53:32.734Z,1008.734516944
2022-10-18T00:54:32.713Z,1008.836108308
2022-10-18T00:55:32.726Z,1008.937699672
2022-10-18T00:56:32.696Z,1009.0392910360001
2022-10-18T00:57:32.732Z,1008.836108308
2022-10-18T00:58:32.718Z,1008.836108308
2022-10-18T00:59:32.715Z,1008.63292558
2022-10-18T01:00:32.701Z,1008.63292558
2022-10-18T01:01:32.790Z,1008.63292558
2022-10-18T01:02:33.135Z,1008.836108308
2022-10-18T01:03:32.721Z,1008.63292558
2022-10-18T01:04:32.713Z,1008.63292558
2022-10-18T01:05:32.896Z,1008.63292558
2022-10-18T01:06:32.696Z,1008.63292558
2022-10-18T01:07:32.923Z,1008.63292558
2022-10-18T01:08:32.737Z,1008.734516944
2022-10-18T01:09:32.733Z,1008.531334216
2022-10-18T01:10:32.717Z,1008.531334216
2022-10-18T01:11:32.736Z,1008.531334216
2022-10-18T01:12:32.719Z,1008.429742852
2022-10-18T01:13:32.781Z,1008.531334216
2022-10-18T01:14:32.718Z,1008.328151488
2022-10-18T01:15:32.757Z,1008.429742852
2022-10-18T01:16:32.719Z,1008.328151488
2022-10-18T01:17:33.043Z,1008.328151488
2022-10-18T01:18:32.684Z,1008.328151488
2022-10-18T01:19:32.731Z,1007.921786032
2022-10-18T01:20:32.795Z,1008.226560124
2022-10-18T01:21:32.747Z,1008.1249687599999
2022-10-18T01:22:32.701Z,1008.1249687599999
2022-10-18T01:23:32.696Z,1008.023377396
2022-10-18T01:24:32.734Z,1007.8201946679999
2022-10-18T01:25:32.729Z,1007.921786032
2022-10-18T01:26:32.703Z,1008.023377396
2022-10-18T01:27:32.935Z,1008.023377396
2022-10-18T01:28:32.765Z,1007.718603304
2022-10-18T01:29:32.724Z,1007.921786032
2022-10-18T01:30:32.680Z,1008.023377396
2022-10-18T01:31:32.715Z,1008.226560124
2022-10-18T01:32:32.724Z,1007.921786032
2022-10-18T01:33:32.727Z,1008.226560124
2022-10-18T01:34:32.677Z,1008.531334216
2022-10-18T01:35:32.717Z,1008.429742852
2022-10-18T01:36:32.736Z,1008.226560124
2022-10-18T01:37:33.170Z,1008.429742852
2022-10-18T01:38:32.725Z,1008.226560124
2022-10-18T01:39:32.718Z,1008.429742852
2022-10-18T01:40:32.906Z,1008.429742852
2022-10-18T01:41:32.830Z,1008.531334216
2022-10-18T01:42:32.874Z,1008.328151488
2022-10-18T01:43:32.844Z,1008.531334216
2022-10-18T01:44:32.944Z,1008.429742852
2022-10-18T01:45:32.832Z,1008.429742852
2022-10-18T01:46:32.861Z,1008.531334216
2022-10-18T01:47:33.260Z,1008.226560124
2022-10-18T01:48:32.892Z,1008.531334216
2022-10-18T01:49:32.715Z,1008.429742852
2022-10-18T01:50:32.722Z,1008.429742852
2022-10-18T01:51:32.724Z,1008.531334216
2022-10-18T01:52:32.942Z,1008.328151488
2022-10-18T01:53:32.726Z,1008.531334216
2022-10-18T01:54:32.690Z,1008.531334216
2022-10-18T01:55:32.865Z,1008.63292558
2022-10-18T01:56:32.713Z,1008.531334216
2022-10-18T01:57:32.701Z,1008.734516944
2022-10-18T01:58:32.683Z,1008.531334216
2022-10-18T01:59:32.723Z,1008.63292558
2022-10-18T02:00:32.738Z,1008.734516944
2022-10-18T02:01:32.723Z,1008.63292558
2022-10-18T02:02:33.124Z,1008.734516944
2022-10-18T02:03:32.718Z,1008.734516944
2022-10-18T02:04:32.679Z,1008.63292558
2022-10-18T02:05:32.737Z,1008.531334216
2022-10-18T02:06:32.685Z,1008.531334216
2022-10-18T02:07:32.750Z,1008.63292558
2022-10-18T02:08:32.717Z,1008.734516944
2022-10-18T02:09:32.859Z,1008.531334216
2022-10-18T02:10:32.686Z,1008.63292558
2022-10-18T02:11:32.741Z,1008.734516944
2022-10-18T02:12:33.199Z,1008.734516944
2022-10-18T02:13:32.726Z,1008.734516944
2022-10-18T02:14:32.707Z,1008.734516944
2022-10-18T02:15:32.822Z,1008.63292558
2022-10-18T02:16:32.723Z,1008.63292558
2022-10-18T02:17:32.768Z,1008.429742852
2022-10-18T02:18:32.708Z,1008.734516944
2022-10-18T02:19:32.726Z,1008.937699672
2022-10-18T02:20:32.720Z,1008.836108308
2022-10-18T02:21:32.712Z,1008.63292558
2022-10-18T02:22:33.256Z,1008.328151488
2022-10-18T02:23:32.717Z,1008.63292558
2022-10-18T02:24:32.781Z,1008.531334216
2022-10-18T02:25:32.713Z,1008.63292558
2022-10-18T02:26:32.677Z,1008.531334216
2022-10-18T02:27:32.770Z,1008.531334216
2022-10-18T02:28:32.713Z,1008.429742852
2022-10-18T02:29:32.740Z,1008.63292558
2022-10-18T02:30:32.701Z,1008.531334216
2022-10-18T02:31:32.720Z,1008.63292558
2022-10-18T02:32:32.997Z,1008.836108308
2022-10-18T02:33:32.773Z,1008.63292558
2022-10-18T02:34:32.683Z,1008.63292558
2022-10-18T02:35:32.747Z,1008.836108308
2022-10-18T02:36:32.722Z,1008.63292558
2022-10-18T02:37:32.740Z,1008.531334216
2022-10-18T02:38:32.685Z,1008.734516944
2022-10-18T02:39:32.720Z,1008.63292558
2022-10-18T02:40:32.761Z,1008.836108308
2022-10-18T02:41:32.727Z,1008.531334216
2022-10-18T02:42:33.004Z,1008.63292558
2022-10-18T02:43:32.710Z,1008.937699672
2022-10-18T02:44:32.717Z,1008.836108308
2022-10-18T02:45:32.710Z,1008.734516944
2022-10-18T02:46:32.705Z,1008.734516944
2022-10-18T02:47:33.023Z,1008.937699672
2022-10-18T02:48:32.702Z,1008.836108308
2022-10-18T02:49:32.713Z,1008.937699672
2022-10-18T02:50:32.671Z,1008.937699672
2022-10-18T02:51:32.700Z,1008.734516944
2022-10-18T02:52:32.720Z,1008.937699672
2022-10-18T02:53:32.897Z,1009.0392910360001
2022-10-18T02:54:32.702Z,1008.937699672
2022-10-18T02:55:32.718Z,1009.0392910360001
2022-10-18T02:56:32.706Z,1008.734516944
2022-10-18T02:57:33.085Z,1008.63292558
2022-10-18T02:58:32.700Z,1008.937699672
2022-10-18T02:59:32.710Z,1008.937699672
2022-10-18T03:00:32.726Z,1008.836108308
2022-10-18T03:01:32.754Z,1008.937699672
2022-10-18T03:02:32.681Z,1008.734516944
2022-10-18T03:03:32.718Z,1008.937699672
2022-10-18T03:04:32.782Z,1008.937699672
2022-10-18T03:05:32.709Z,1008.937699672
2022-10-18T03:06:32.716Z,1008.734516944
2022-10-18T03:07:32.983Z,1009.0392910360001
2022-10-18T03:08:32.695Z,1008.734516944
2022-10-18T03:09:32.714Z,1008.836108308
2022-10-18T03:10:32.829Z,1008.937699672
2022-10-18T03:11:32.885Z,1008.836108308
2022-10-18T03:12:32.758Z,1008.937699672
2022-10-18T03:13:32.890Z,1008.836108308
2022-10-18T03:14:32.840Z,1008.937699672
2022-10-18T03:15:32.851Z,1008.63292558
2022-10-18T03:16:32.855Z,1008.734516944
2022-10-18T03:17:33.172Z,1008.836108308
2022-10-18T03:18:32.950Z,1008.937699672
2022-10-18T03:19:32.902Z,1008.63292558
2022-10-18T03:20:32.720Z,1008.937699672
2022-10-18T03:21:32.690Z,1008.734516944
2022-10-18T03:22:32.789Z,1008.734516944
2022-10-18T03:23:32.704Z,1008.836108308
2022-10-18T03:24:32.703Z,1009.1070186119999
2022-10-18T03:25:32.722Z,1008.836108308
2022-10-18T03:26:32.674Z,1009.0392910360001
2022-10-18T03:27:33.228Z,1008.937699672
2022-10-18T03:28:33.017Z,1008.937699672
2022-10-18T03:29:32.877Z,1008.937699672
2022-10-18T03:30:32.724Z,1008.734516944
2022-10-18T03:31:32.856Z,1008.937699672
2022-10-18T03:32:32.999Z,1009.0392910360001
2022-10-18T03:33:32.822Z,1008.836108308
2022-10-18T03:34:32.725Z,1008.836108308
2022-10-18T03:35:32.681Z,1008.836108308
2022-10-18T03:36:32.736Z,1008.836108308
2022-10-18T03:37:32.715Z,1008.836108308
2022-10-18T03:38:32.747Z,1009.1070186119999
2022-10-18T03:39:32.680Z,1008.937699672
2022-10-18T03:40:32.799Z,1008.836108308
2022-10-18T03:41:32.904Z,1008.836108308
2022-10-18T03:42:33.155Z,1009.0392910360001
2022-10-18T03:43:32.746Z,1008.937699672
2022-10-18T03:44:32.757Z,1009.0392910360001
2022-10-18T03:45:32.695Z,1008.937699672
2022-10-18T03:46:32.697Z,1009.0392910360001
2022-10-18T03:47:32.764Z,1008.836108308
2022-10-18T03:48:32.720Z,1008.937699672
2022-10-18T03:50:32.780Z,1009.0392910360001
2022-10-18T03:51:32.693Z,1008.937699672
2022-10-18T03:52:33.078Z,1008.836108308
2022-10-18T03:53:32.736Z,1008.836108308
2022-10-18T03:54:32.714Z,1009.0392910360001
2022-10-18T03:55:32.665Z,1008.937699672
2022-10-18T03:56:32.706Z,1009.3102013399999
2022-10-18T03:57:32.714Z,1009.0392910360001
2022-10-18T03:59:32.693Z,1009.208609976
2022-10-18T04:00:32.716Z,1009.4117927039999
2022-10-18T04:01:32.894Z,1009.208609976
2022-10-18T04:02:33.274Z,1009.0392910360001
2022-10-18T04:03:32.689Z,1009.1070186119999
2022-10-18T04:04:32.867Z,1009.208609976
2022-10-18T04:05:32.758Z,1009.0392910360001
2022-10-18T04:06:32.739Z,1009.0392910360001
2022-10-18T04:07:32.746Z,1009.1070186119999
2022-10-18T04:08:32.699Z,1009.208609976
2022-10-18T04:09:32.695Z,1008.937699672
2022-10-18T04:10:32.721Z,1008.937699672
2022-10-18T04:11:32.711Z,1009.0392910360001
2022-10-18T04:12:33.140Z,1009.0392910360001
2022-10-18T04:13:32.707Z,1009.0392910360001
2022-10-18T04:14:32.722Z,1009.1070186119999
2022-10-18T04:15:32.687Z,1009.208609976
2022-10-18T04:16:32.797Z,1009.0392910360001
2022-10-18T04:17:33.033Z,1009.1070186119999
2022-10-18T04:18:32.766Z,1009.0392910360001
2022-10-18T04:19:32.664Z,1009.1070186119999
2022-10-18T04:20:32.731Z,1009.0392910360001
2022-10-18T04:21:32.702Z,1009.208609976
2022-10-18T04:22:32.704Z,1009.3102013399999
2022-10-18T04:23:35.107Z,1009.3102013399999
2022-10-18T04:24:32.712Z,1009.4117927039999
2022-10-18T04:25:32.788Z,1009.3102013399999
2022-10-18T04:26:32.733Z,1009.6149754319999
2022-10-18T04:27:32.921Z,1009.3102013399999
2022-10-18T04:28:32.743Z,1009.4117927039999
2022-10-18T04:29:32.723Z,1009.513384068
2022-10-18T04:30:32.692Z,1009.6149754319999
2022-10-18T04:31:32.680Z,1009.3102013399999
2022-10-18T04:32:32.712Z,1009.4117927039999
2022-10-18T04:33:32.732Z,1009.3102013399999
2022-10-18T04:34:32.780Z,1009.3102013399999
2022-10-18T04:35:32.696Z,1009.6149754319999
2022-10-18T04:36:32.718Z,1009.6149754319999
2022-10-18T04:37:33.026Z,1009.513384068
2022-10-18T04:38:32.766Z,1009.513384068
2022-10-18T04:39:32.696Z,1009.513384068
2022-10-18T04:40:32.711Z,1009.7165667959999
2022-10-18T04:41:32.696Z,1009.6149754319999
2022-10-18T04:42:32.696Z,1009.6149754319999
2022-10-18T04:43:32.715Z,1009.919749524
2022-10-18T04:44:32.739Z,1009.7165667959999
2022-10-18T04:45:32.690Z,1009.7165667959999
2022-10-18T04:46:32.711Z,1009.81815816
2022-10-18T04:47:33.047Z,1009.513384068
2022-10-18T04:48:32.725Z,1009.513384068
2022-10-18T04:49:32.720Z,1009.513384068
2022-10-18T04:50:32.714Z,1009.4117927039999
2022-10-18T04:51:32.694Z,1009.7165667959999
2022-10-18T04:52:32.720Z,1009.4117927039999
2022-10-18T04:53:32.686Z,1009.7165667959999
2022-10-18T04:54:32.716Z,1009.7165667959999
2022-10-18T04:55:32.679Z,1009.6149754319999
2022-10-18T04:56:32.710Z,1009.6149754319999
2022-10-18T04:57:33.049Z,1009.6149754319999
2022-10-18T04:58:32.694Z,1009.513384068
2022-10-18T04:59:32.674Z,1009.6149754319999
2022-10-18T05:00:36.531Z,1009.513384068
2022-10-18T05:01:32.739Z,1009.513384068
2022-10-18T05:02:32.985Z,1009.6149754319999
2022-10-18T05:03:32.698Z,1009.7165667959999
2022-10-18T05:04:32.716Z,1009.513384068
2022-10-18T05:05:49.553Z,1009.513384068
2022-10-18T05:06:32.785Z,1009.513384068
2022-10-18T05:07:32.708Z,1009.4117927039999
2022-10-18T05:08:32.709Z,1009.3102013399999
2022-10-18T05:09:32.717Z,1009.3102013399999
2022-10-18T05:10:32.701Z,1009.6149754319999
2022-10-18T05:11:32.716Z,1009.513384068
2022-10-18T05:12:33.172Z,1009.4117927039999
2022-10-18T05:13:32.760Z,1009.3102013399999
2022-10-18T05:14:32.695Z,1009.4117927039999
2022-10-18T05:15:32.723Z,1009.1070186119999
2022-10-18T05:16:32.714Z,1009.513384068
2022-10-18T05:17:32.708Z,1009.4117927039999
2022-10-18T05:18:32.717Z,1009.513384068
2022-10-18T05:19:32.713Z,1009.6149754319999
2022-10-18T05:20:32.678Z,1009.6149754319999
2022-10-18T05:21:32.718Z,1009.513384068
2022-10-18T05:22:32.920Z,1009.7165667959999
2022-10-18T05:23:32.709Z,1009.6149754319999
2022-10-18T05:24:32.737Z,1009.6149754319999
2022-10-18T05:25:32.919Z,1009.6149754319999
2022-10-18T05:26:32.838Z,1009.81815816
2022-10-18T05:27:32.679Z,1009.4117927039999
2022-10-18T05:28:40.370Z,1009.6149754319999
2022-10-18T05:29:32.754Z,1009.6149754319999
2022-10-18T05:30:32.687Z,1009.7165667959999
2022-10-18T05:31:32.700Z,1009.919749524
2022-10-18T05:32:33.399Z,1009.81815816
2022-10-18T05:33:32.907Z,1009.7165667959999
2022-10-18T05:34:32.685Z,1009.919749524
2022-10-18T05:35:32.712Z,1009.81815816
2022-10-18T05:36:32.682Z,1009.81815816
2022-10-18T05:37:32.685Z,1009.7165667959999
2022-10-18T05:38:32.759Z,1009.7165667959999
2022-10-18T05:39:32.819Z,1009.919749524
2022-10-18T05:40:32.713Z,1009.919749524
2022-10-18T05:41:32.704Z,1009.81815816
2022-10-18T05:42:32.942Z,1010.0213408879999
2022-10-18T05:43:32.695Z,1009.6149754319999
2022-10-18T05:44:32.698Z,1010.0213408879999
2022-10-18T05:45:32.727Z,1009.919749524
2022-10-18T05:46:32.694Z,1010.0213408879999
2022-10-18T05:47:32.748Z,1009.81815816
2022-10-18T05:48:32.697Z,1009.919749524
2022-10-18T05:49:32.695Z,1010.122932252
2022-10-18T05:50:36.636Z,1009.919749524
2022-10-18T05:51:32.691Z,1009.81815816
2022-10-18T05:52:33.080Z,1009.7165667959999
2022-10-18T05:53:37.217Z,1009.6149754319999
2022-10-18T05:54:32.682Z,1009.81815816
2022-10-18T05:55:32.763Z,1009.7165667959999
2022-10-18T05:56:32.772Z,1009.7165667959999
2022-10-18T05:57:32.954Z,1009.7165667959999
2022-10-18T05:58:32.670Z,1009.7165667959999
2022-10-18T05:59:32.725Z,1009.919749524
2022-10-18T06:00:32.795Z,1009.6149754319999
2022-10-18T06:01:32.721Z,1009.919749524
2022-10-18T06:02:32.728Z,1009.7165667959999
2022-10-18T06:03:32.807Z,1009.919749524
2022-10-18T06:04:32.722Z,1009.81815816
2022-10-18T06:05:32.779Z,1009.81815816
2022-10-18T06:06:32.732Z,1009.81815816
2022-10-18T06:07:33.173Z,1009.919749524
2022-10-18T06:08:32.793Z,1009.919749524
2022-10-18T06:09:32.691Z,1010.122932252
2022-10-18T06:10:32.681Z,1010.0213408879999
2022-10-18T06:11:32.704Z,1010.122932252
2022-10-18T06:12:32.679Z,1010.122932252
2022-10-18T06:13:33.943Z,1009.81815816
2022-10-18T06:14:32.660Z,1009.7165667959999
2022-10-18T06:15:32.694Z,1009.919749524
2022-10-18T06:16:32.896Z,1010.0213408879999
2022-10-18T06:17:32.767Z,1009.919749524
2022-10-18T06:18:32.712Z,1010.224523616
2022-10-18T06:19:32.724Z,1009.919749524
2022-10-18T06:20:32.711Z,1009.81815816
2022-10-18T06:21:32.706Z,1010.122932252
2022-10-18T06:22:32.681Z,1009.7165667959999
2022-10-18T06:23:32.736Z,1010.0213408879999
2022-10-18T06:24:32.791Z,1010.224523616
2022-10-18T06:25:32.677Z,1010.122932252
2022-10-18T06:26:32.667Z,1009.919749524
2022-10-18T06:27:33.120Z,1010.122932252
2022-10-18T06:28:32.730Z,1010.0213408879999
2022-10-18T06:29:32.860Z,1010.0213408879999
2022-10-18T06:30:32.754Z,1010.122932252
2022-10-18T06:31:32.759Z,1010.122932252
2022-10-18T06:32:32.871Z,1010.3261149799999
2022-10-18T06:33:32.709Z,1010.0213408879999
2022-10-18T06:34:32.678Z,1010.122932252
2022-10-18T06:35:32.713Z,1010.224523616
2022-10-18T06:36:32.738Z,1010.3261149799999
2022-10-18T06:37:33.025Z,1010.224523616
2022-10-18T06:38:32.717Z,1010.122932252
2022-10-18T06:39:32.706Z,1010.224523616
2022-10-18T06:40:32.699Z,1010.224523616
2022-10-18T06:41:32.708Z,1010.3261149799999
2022-10-18T06:42:32.884Z,1010.224523616
2022-10-18T06:43:32.706Z,1010.224523616
2022-10-18T06:44:32.954Z,1010.224523616
2022-10-18T06:45:32.694Z,1010.3261149799999
2022-10-18T06:46:32.660Z,1010.3261149799999
2022-10-18T06:47:32.672Z,1010.3261149799999
2022-10-18T06:48:32.693Z,1010.4277063440001
2022-10-18T06:49:32.755Z,1010.4277063440001
2022-10-18T06:50:32.751Z,1010.4277063440001
2022-10-18T06:51:32.707Z,1010.224523616
2022-10-18T06:52:33.067Z,1010.224523616
2022-10-18T06:53:32.672Z,1010.630889072
2022-10-18T06:54:32.643Z,1010.3261149799999
2022-10-18T06:55:32.794Z,1010.5292977080001
2022-10-18T06:56:32.679Z,1010.4277063440001
2022-10-18T06:57:32.687Z,1010.5292977080001
2022-10-18T06:58:32.699Z,1010.4277063440001
2022-10-18T06:59:32.710Z,1010.4277063440001
2022-10-18T07:00:32.841Z,1010.4277063440001
2022-10-18T07:01:32.779Z,1010.4277063440001
2022-10-18T07:02:33.008Z,1010.5292977080001
2022-10-18T07:03:32.672Z,1010.630889072
2022-10-18T07:04:32.735Z,1010.5292977080001
2022-10-18T07:06:32.672Z,1010.5292977080001
2022-10-18T07:07:32.943Z,1010.630889072
2022-10-18T07:08:32.680Z,1010.630889072
2022-10-18T07:09:32.849Z,1010.5292977080001
2022-10-18T07:10:32.649Z,1010.630889072
2022-10-18T07:11:32.704Z,1010.630889072
2022-10-18T07:12:32.664Z,1010.8340718000001
2022-10-18T07:13:33.342Z,1010.7324804360001
2022-10-18T07:14:32.701Z,1010.630889072
2022-10-18T07:16:32.671Z,1010.8340718000001
2022-10-18T07:17:32.981Z,1010.7324804360001
2022-10-18T07:18:32.664Z,1010.630889072
2022-10-18T07:19:32.693Z,1010.8340718000001
2022-10-18T07:20:32.718Z,1010.5292977080001
2022-10-18T07:21:32.717Z,1010.630889072
2022-10-18T07:22:32.688Z,1010.8340718000001
2022-10-18T07:23:32.678Z,1010.5292977080001
2022-10-18T07:25:32.719Z,1010.7324804360001
2022-10-18T07:26:32.738Z,1010.7324804360001
2022-10-18T07:27:33.061Z,1010.7324804360001
2022-10-18T07:28:32.781Z,1010.8340718000001
2022-10-18T07:29:32.695Z,1010.8340718000001
2022-10-18T07:30:32.659Z,1010.8340718000001
2022-10-18T07:31:32.675Z,1010.5292977080001
2022-10-18T07:32:32.673Z,1010.7324804360001
2022-10-18T07:33:32.712Z,1010.5292977080001
2022-10-18T07:34:32.667Z,1010.8340718000001
2022-10-18T07:35:32.689Z,1010.7324804360001
2022-10-18T07:36:32.682Z,1010.630889072
2022-10-18T07:37:32.976Z,1010.630889072
2022-10-18T07:38:32.667Z,1010.630889072
2022-10-18T07:39:32.704Z,1010.630889072
2022-10-18T07:40:32.806Z,1010.7324804360001
2022-10-18T07:41:32.683Z,1010.5292977080001
2022-10-18T07:42:32.733Z,1010.4277063440001
2022-10-18T07:43:32.717Z,1010.7324804360001
2022-10-18T07:44:32.703Z,1010.935663164
2022-10-18T07:45:32.715Z,1010.7324804360001
2022-10-18T07:46:32.659Z,1010.7324804360001
2022-10-18T07:47:35.121Z,1010.935663164
2022-10-18T07:48:32.665Z,1010.7324804360001
2022-10-18T07:49:32.887Z,1010.8340718000001
2022-10-18T07:50:32.693Z,1011.0372545280001
2022-10-18T07:51:32.703Z,1010.935663164
2022-10-18T07:52:32.698Z,1010.7324804360001
2022-10-18T07:53:32.695Z,1010.7324804360001
2022-10-18T07:54:32.651Z,1010.7324804360001
2022-10-18T07:55:32.853Z,1010.935663164
2022-10-18T07:56:32.684Z,1010.630889072
2022-10-18T07:57:33.002Z,1010.7324804360001
2022-10-18T07:58:32.649Z,1011.0372545280001
2022-10-18T07:59:32.707Z,1010.8340718000001
2022-10-18T08:00:32.702Z,1010.935663164
2022-10-18T08:01:32.791Z,1011.0372545280001
2022-10-18T08:02:32.693Z,1010.935663164
2022-10-18T08:03:32.700Z,1010.8340718000001
2022-10-18T08:04:32.674Z,1010.935663164
2022-10-18T08:06:32.671Z,1011.0372545280001
2022-10-18T08:07:32.933Z,1010.8340718000001
2022-10-18T08:08:32.678Z,1011.1388458920001
2022-10-18T08:09:32.727Z,1010.935663164
2022-10-18T08:10:32.655Z,1010.630889072
2022-10-18T08:11:32.710Z,1011.1388458920001
2022-10-18T08:12:32.680Z,1011.0372545280001
2022-10-18T08:13:32.692Z,1010.8340718000001
2022-10-18T08:14:32.654Z,1010.7324804360001
2022-10-18T08:15:32.692Z,1010.8340718000001
2022-10-18T08:17:33.122Z,1010.8340718000001
2022-10-18T08:18:32.654Z,1010.7324804360001
2022-10-18T08:19:32.693Z,1010.7324804360001
2022-10-18T08:20:32.744Z,1010.8340718000001
2022-10-18T08:21:32.768Z,1010.8340718000001
2022-10-18T08:22:32.700Z,1010.935663164
2022-10-18T08:23:32.761Z,1010.630889072
2022-10-18T08:24:32.700Z,1010.7324804360001
2022-10-18T08:25:32.701Z,1010.8340718000001
2022-10-18T08:26:32.779Z,1011.0372545280001
2022-10-18T08:27:32.843Z,1010.7324804360001
2022-10-18T08:28:32.763Z,1010.8340718000001
2022-10-18T08:29:32.730Z,1010.8340718000001
2022-10-18T08:30:32.665Z,1011.0372545280001
2022-10-18T08:31:32.708Z,1010.935663164
2022-10-18T08:32:32.954Z,1011.0372545280001
2022-10-18T08:33:32.679Z,1010.8340718000001
2022-10-18T08:34:32.710Z,1010.8340718000001
2022-10-18T08:35:32.711Z,1010.7324804360001
2022-10-18T08:36:32.793Z,1011.0372545280001
2022-10-18T08:37:33.025Z,1010.935663164
2022-10-18T08:38:32.666Z,1010.7324804360001
2022-10-18T08:39:32.690Z,1010.630889072
2022-10-18T08:40:32.687Z,1010.8340718000001
2022-10-18T08:41:32.710Z,1010.8340718000001
2022-10-18T08:42:33.108Z,1010.935663164
2022-10-18T08:43:32.751Z,1011.0372545280001
2022-10-18T08:44:32.721Z,1010.935663164
2022-10-18T08:45:41.503Z,1011.0372545280001
2022-10-18T08:46:32.640Z,1011.0372545280001
2022-10-18T08:47:32.930Z,1011.0372545280001
2022-10-18T08:48:32.684Z,1011.0372545280001
2022-10-18T08:49:32.700Z,1010.7324804360001
2022-10-18T08:50:32.794Z,1011.0372545280001
2022-10-18T08:51:32.682Z,1011.0372545280001
2022-10-18T08:52:32.730Z,1010.8340718000001
2022-10-18T08:53:36.137Z,1011.0372545280001
2022-10-18T08:54:32.717Z,1011.0372545280001
2022-10-18T08:55:32.677Z,1011.0372545280001
2022-10-18T08:56:32.662Z,1010.935663164
2022-10-18T08:57:32.964Z,1011.1388458920001
2022-10-18T08:58:32.661Z,1011.1388458920001
2022-10-18T08:59:32.726Z,1011.308164832
2022-10-18T09:00:32.692Z,1011.1388458920001
2022-10-18T09:01:32.792Z,1011.0372545280001
2022-10-18T09:02:32.990Z,1011.0372545280001
2022-10-18T09:03:32.708Z,1011.1388458920001
2022-10-18T09:04:32.680Z,1010.935663164
2022-10-18T09:05:32.660Z,1011.0372545280001
2022-10-18T09:06:32.681Z,1010.8340718000001
2022-10-18T09:07:32.675Z,1010.8340718000001
2022-10-18T09:08:32.677Z,1010.8340718000001
2022-10-18T09:09:32.671Z,1010.8340718000001
2022-10-18T09:10:32.674Z,1010.935663164
2022-10-18T09:11:32.710Z,1010.935663164
2022-10-18T09:12:33.135Z,1011.0372545280001
2022-10-18T09:13:32.696Z,1010.935663164
2022-10-18T09:14:32.681Z,1011.0372545280001
2022-10-18T09:15:32.687Z,1011.0372545280001
2022-10-18T09:16:32.678Z,1011.0372545280001
2022-10-18T09:17:32.687Z,1011.0372545280001
2022-10-18T09:18:32.627Z,1011.1388458920001
2022-10-18T09:19:32.663Z,1010.935663164
2022-10-18T09:20:32.689Z,1011.2404372559998
2022-10-18T09:21:32.722Z,1011.0372545280001
2022-10-18T09:22:33.143Z,1011.0372545280001
2022-10-18T09:23:32.722Z,1011.2404372559998
2022-10-18T09:24:32.684Z,1011.0372545280001
2022-10-18T09:25:32.648Z,1010.935663164
2022-10-18T09:26:32.650Z,1010.935663164
2022-10-18T09:27:32.667Z,1011.2404372559998
2022-10-18T09:28:32.844Z,1010.8340718000001
2022-10-18T09:29:32.671Z,1011.0372545280001
2022-10-18T09:30:32.670Z,1010.935663164
2022-10-18T09:31:32.677Z,1011.0372545280001
2022-10-18T09:32:33.171Z,1011.0372545280001
2022-10-18T09:33:32.857Z,1010.935663164
2022-10-18T09:34:32.653Z,1010.935663164
2022-10-18T09:35:32.676Z,1010.935663164
2022-10-18T09:36:32.742Z,1010.7324804360001
2022-10-18T09:37:32.664Z,1010.935663164
2022-10-18T09:38:32.652Z,1010.7324804360001
2022-10-18T09:39:32.698Z,1010.7324804360001
2022-10-18T09:40:32.730Z,1010.630889072
2022-10-18T09:41:32.667Z,1010.935663164
2022-10-18T09:42:32.863Z,1010.8340718000001
2022-10-18T09:43:32.697Z,1010.935663164